sensor_id;sensor_type;location;lat;lon;timestamp;temperature;humidity
23069;DHT22;11702;50.856;4.348;2022-12-05T00:01:38;2.10;99.90
23069;DHT22;11702;50.856;4.348;2022-12-05T00:04:13;2.00;99.90
23069;DHT22;11702;50.856;4.348;2022-12-05T00:06:39;2.10;99.90
23069;DHT22;11702;50.856;4.348;2022-12-05T00:09:10;2.00;99.90
23069;DHT22;11702;50.856;4.348;2022-12-05T00:11:37;2.10;99.90
23069;DHT22;11702;50.856;4.348;2022-12-05T00:14:04;2.00;99.90
23069;DHT22;11702;50.856;4.348;2022-12-05T00:16:32;1.90;99.90
23069;DHT22;11702;50.856;4.348;2022-12-05T00:19:02;1.90;99.90
23069;DHT22;11702;50.856;4.348;2022-12-05T00:21:30;1.90;99.90
23069;DHT22;11702;50.856;4.348;2022-12-05T00:23:57;1.90;99.90
23069;DHT22;11702;50.856;4.348;2022-12-05T00:26:23;1.90;99.90
23069;DHT22;11702;50.856;4.348;2022-12-05T00:28:50;1.90;99.90
23069;DHT22;11702;50.856;4.348;2022-12-05T00:31:19;1.90;99.90
23069;DHT22;11702;50.856;4.348;2022-12-05T00:33:45;1.90;99.90
23069;DHT22;11702;50.856;4.348;2022-12-05T00:36:13;1.90;99.90
23069;DHT22;11702;50.856;4.348;2022-12-05T00:38:39;2.00;99.90
23069;DHT22;11702;50.856;4.348;2022-12-05T00:41:10;1.90;99.90
23069;DHT22;11702;50.856;4.348;2022-12-05T00:43:37;1.90;99.90
23069;DHT22;11702;50.856;4.348;2022-12-05T00:46:08;1.80;99.90
23069;DHT22;11702;50.856;4.348;2022-12-05T00:48:35;1.80;99.90
23069;DHT22;11702;50.856;4.348;2022-12-05T00:51:08;1.80;99.90
23069;DHT22;11702;50.856;4.348;2022-12-05T00:53:34;1.80;99.90
23069;DHT22;11702;50.856;4.348;2022-12-05T00:56:05;1.70;99.90
23069;DHT22;11702;50.856;4.348;2022-12-05T00:58:31;1.70;99.90
23069;DHT22;11702;50.856;4.348;2022-12-05T01:01:04;1.70;99.90
23069;DHT22;11702;50.856;4.348;2022-12-05T01:03:30;1.70;99.90
23069;DHT22;11702;50.856;4.348;2022-12-05T01:05:57;1.70;99.90
23069;DHT22;11702;50.856;4.348;2022-12-05T01:08:23;1.80;99.90
23069;DHT22;11702;50.856;4.348;2022-12-05T01:10:56;1.80;99.90
23069;DHT22;11702;50.856;4.348;2022-12-05T01:13:23;1.80;99.90
23069;DHT22;11702;50.856;4.348;2022-12-05T01:15:49;1.80;99.90
23069;DHT22;11702;50.856;4.348;2022-12-05T01:18:14;1.70;99.90
23069;DHT22;11702;50.856;4.348;2022-12-05T01:20:41;1.80;99.90
23069;DHT22;11702;50.856;4.348;2022-12-05T01:23:07;1.80;99.90
23069;DHT22;11702;50.856;4.348;2022-12-05T01:25:33;1.80;99.90
23069;DHT22;11702;50.856;4.348;2022-12-05T01:27:59;1.80;99.90
23069;DHT22;11702;50.856;4.348;2022-12-05T01:30:25;1.90;99.90
23069;DHT22;11702;50.856;4.348;2022-12-05T01:32:50;1.80;99.90
23069;DHT22;11702;50.856;4.348;2022-12-05T01:35:16;1.80;99.90
23069;DHT22;11702;50.856;4.348;2022-12-05T01:37:42;1.70;99.90
23069;DHT22;11702;50.856;4.348;2022-12-05T01:40:08;1.80;99.90
23069;DHT22;11702;50.856;4.348;2022-12-05T01:42:33;1.90;99.90
23069;DHT22;11702;50.856;4.348;2022-12-05T01:45:07;1.90;99.90
23069;DHT22;11702;50.856;4.348;2022-12-05T01:47:36;1.90;99.90
23069;DHT22;11702;50.856;4.348;2022-12-05T01:50:03;1.90;99.90
23069;DHT22;11702;50.856;4.348;2022-12-05T01:52:30;1.90;99.90
23069;DHT22;11702;50.856;4.348;2022-12-05T01:55:03;1.80;99.90
23069;DHT22;11702;50.856;4.348;2022-12-05T01:57:30;1.90;99.90
23069;DHT22;11702;50.856;4.348;2022-12-05T01:59:59;1.90;99.90
23069;DHT22;11702;50.856;4.348;2022-12-05T02:02:27;2.00;99.90
23069;DHT22;11702;50.856;4.348;2022-12-05T02:07:26;1.90;99.90
23069;DHT22;11702;50.856;4.348;2022-12-05T02:09:51;2.10;99.90
23069;DHT22;11702;50.856;4.348;2022-12-05T02:12:19;2.10;99.90
23069;DHT22;11702;50.856;4.348;2022-12-05T02:15:11;2.10;99.90
23069;DHT22;11702;50.856;4.348;2022-12-05T02:31:20;2.00;99.90
23069;DHT22;11702;50.856;4.348;2022-12-05T02:36:51;2.00;99.90
23069;DHT22;11702;50.856;4.348;2022-12-05T02:40:12;2.10;99.90
23069;DHT22;11702;50.856;4.348;2022-12-05T02:45:03;2.10;99.90
23069;DHT22;11702;50.856;4.348;2022-12-05T02:47:40;2.20;99.90
23069;DHT22;11702;50.856;4.348;2022-12-05T02:50:09;2.10;99.90
23069;DHT22;11702;50.856;4.348;2022-12-05T02:52:36;2.10;99.90
23069;DHT22;11702;50.856;4.348;2022-12-05T02:55:03;2.10;99.90
23069;DHT22;11702;50.856;4.348;2022-12-05T02:57:30;2.10;99.90
23069;DHT22;11702;50.856;4.348;2022-12-05T02:59:56;2.00;99.90
23069;DHT22;11702;50.856;4.348;2022-12-05T03:02:30;2.10;99.90
23069;DHT22;11702;50.856;4.348;2022-12-05T03:05:20;2.10;99.90
23069;DHT22;11702;50.856;4.348;2022-12-05T03:07:50;2.10;99.90
23069;DHT22;11702;50.856;4.348;2022-12-05T03:10:19;2.10;99.90
23069;DHT22;11702;50.856;4.348;2022-12-05T03:12:55;2.10;99.90
23069;DHT22;11702;50.856;4.348;2022-12-05T03:15:31;2.10;99.90
23069;DHT22;11702;50.856;4.348;2022-12-05T03:23:34;2.10;99.90
23069;DHT22;11702;50.856;4.348;2022-12-05T03:26:17;2.10;99.90
23069;DHT22;11702;50.856;4.348;2022-12-05T03:29:21;2.00;99.90
23069;DHT22;11702;50.856;4.348;2022-12-05T03:40:48;2.10;99.90
23069;DHT22;11702;50.856;4.348;2022-12-05T03:43:21;2.10;99.90
23069;DHT22;11702;50.856;4.348;2022-12-05T03:46:09;2.10;99.90
23069;DHT22;11702;50.856;4.348;2022-12-05T03:49:02;2.20;99.90
23069;DHT22;11702;50.856;4.348;2022-12-05T03:51:34;2.30;99.90
23069;DHT22;11702;50.856;4.348;2022-12-05T03:54:26;2.30;99.90
23069;DHT22;11702;50.856;4.348;2022-12-05T03:57:07;2.40;99.90
23069;DHT22;11702;50.856;4.348;2022-12-05T04:02:20;2.20;99.90
23069;DHT22;11702;50.856;4.348;2022-12-05T04:05:06;2.10;99.90
23069;DHT22;11702;50.856;4.348;2022-12-05T04:07:35;2.10;99.90
23069;DHT22;11702;50.856;4.348;2022-12-05T04:10:07;2.10;99.90
23069;DHT22;11702;50.856;4.348;2022-12-05T04:12:35;2.10;99.90
23069;DHT22;11702;50.856;4.348;2022-12-05T04:15:09;2.20;99.90
23069;DHT22;11702;50.856;4.348;2022-12-05T04:17:47;2.20;99.90
23069;DHT22;11702;50.856;4.348;2022-12-05T04:20:22;2.20;99.90
23069;DHT22;11702;50.856;4.348;2022-12-05T04:23:08;2.20;99.90
23069;DHT22;11702;50.856;4.348;2022-12-05T04:28:35;2.40;99.90
23069;DHT22;11702;50.856;4.348;2022-12-05T04:31:31;2.30;99.90
23069;DHT22;11702;50.856;4.348;2022-12-05T04:34:01;2.30;99.90
23069;DHT22;11702;50.856;4.348;2022-12-05T04:39:28;2.30;99.90
23069;DHT22;11702;50.856;4.348;2022-12-05T04:42:08;2.30;99.90
23069;DHT22;11702;50.856;4.348;2022-12-05T04:44:41;2.30;99.90
23069;DHT22;11702;50.856;4.348;2022-12-05T04:47:08;2.30;99.90
23069;DHT22;11702;50.856;4.348;2022-12-05T04:49:37;2.20;99.90
23069;DHT22;11702;50.856;4.348;2022-12-05T04:52:08;2.10;99.90
23069;DHT22;11702;50.856;4.348;2022-12-05T04:54:43;2.10;99.90
23069;DHT22;11702;50.856;4.348;2022-12-05T04:57:26;2.10;99.90
23069;DHT22;11702;50.856;4.348;2022-12-05T04:59:53;2.10;99.90
23069;DHT22;11702;50.856;4.348;2022-12-05T05:02:31;2.20;99.90
23069;DHT22;11702;50.856;4.348;2022-12-05T05:04:59;2.30;99.90
23069;DHT22;11702;50.856;4.348;2022-12-05T05:07:27;2.30;99.90
23069;DHT22;11702;50.856;4.348;2022-12-05T05:09:53;2.30;99.90
23069;DHT22;11702;50.856;4.348;2022-12-05T05:12:19;2.20;99.90
23069;DHT22;11702;50.856;4.348;2022-12-05T05:14:45;2.20;99.90
23069;DHT22;11702;50.856;4.348;2022-12-05T05:17:10;2.30;99.90
23069;DHT22;11702;50.856;4.348;2022-12-05T05:19:36;2.30;99.90
23069;DHT22;11702;50.856;4.348;2022-12-05T05:22:01;2.20;99.90
23069;DHT22;11702;50.856;4.348;2022-12-05T05:24:27;2.20;99.90
23069;DHT22;11702;50.856;4.348;2022-12-05T05:26:53;2.20;99.90
23069;DHT22;11702;50.856;4.348;2022-12-05T05:29:18;2.20;99.90
23069;DHT22;11702;50.856;4.348;2022-12-05T05:31:44;2.20;99.90
23069;DHT22;11702;50.856;4.348;2022-12-05T05:34:11;2.30;99.90
23069;DHT22;11702;50.856;4.348;2022-12-05T05:36:37;2.30;99.90
23069;DHT22;11702;50.856;4.348;2022-12-05T05:39:04;2.30;99.90
23069;DHT22;11702;50.856;4.348;2022-12-05T05:41:33;2.40;99.90
23069;DHT22;11702;50.856;4.348;2022-12-05T05:44:00;2.40;99.90
23069;DHT22;11702;50.856;4.348;2022-12-05T05:46:29;2.30;99.90
23069;DHT22;11702;50.856;4.348;2022-12-05T05:48:55;2.30;99.90
23069;DHT22;11702;50.856;4.348;2022-12-05T05:51:22;2.40;99.90
23069;DHT22;11702;50.856;4.348;2022-12-05T05:53:50;2.40;99.90
23069;DHT22;11702;50.856;4.348;2022-12-05T05:56:18;2.40;99.90
23069;DHT22;11702;50.856;4.348;2022-12-05T05:58:44;2.40;99.90
23069;DHT22;11702;50.856;4.348;2022-12-05T06:01:16;2.40;99.90
23069;DHT22;11702;50.856;4.348;2022-12-05T06:03:42;2.40;99.90
23069;DHT22;11702;50.856;4.348;2022-12-05T06:06:10;2.50;99.90
23069;DHT22;11702;50.856;4.348;2022-12-05T06:08:38;2.50;99.90
23069;DHT22;11702;50.856;4.348;2022-12-05T06:11:25;2.60;99.90
23069;DHT22;11702;50.856;4.348;2022-12-05T06:13:51;2.60;99.90
23069;DHT22;11702;50.856;4.348;2022-12-05T06:16:18;2.50;99.90
23069;DHT22;11702;50.856;4.348;2022-12-05T06:18:43;2.50;99.90
23069;DHT22;11702;50.856;4.348;2022-12-05T06:21:09;2.50;99.90
23069;DHT22;11702;50.856;4.348;2022-12-05T06:23:37;2.60;99.90
23069;DHT22;11702;50.856;4.348;2022-12-05T06:26:04;2.50;99.90
23069;DHT22;11702;50.856;4.348;2022-12-05T06:28:31;2.40;99.90
23069;DHT22;11702;50.856;4.348;2022-12-05T06:30:56;2.60;99.90
23069;DHT22;11702;50.856;4.348;2022-12-05T06:33:22;2.50;99.90
23069;DHT22;11702;50.856;4.348;2022-12-05T06:35:48;2.60;99.90
23069;DHT22;11702;50.856;4.348;2022-12-05T06:38:13;2.50;99.90
23069;DHT22;11702;50.856;4.348;2022-12-05T06:40:41;2.60;99.90
23069;DHT22;11702;50.856;4.348;2022-12-05T06:43:07;2.50;99.90
23069;DHT22;11702;50.856;4.348;2022-12-05T06:45:32;2.60;99.90
23069;DHT22;11702;50.856;4.348;2022-12-05T06:47:58;2.60;99.90
23069;DHT22;11702;50.856;4.348;2022-12-05T06:50:24;2.50;99.90
23069;DHT22;11702;50.856;4.348;2022-12-05T06:52:50;2.50;99.90
23069;DHT22;11702;50.856;4.348;2022-12-05T06:55:15;2.60;99.90
23069;DHT22;11702;50.856;4.348;2022-12-05T06:57:41;2.50;99.90
23069;DHT22;11702;50.856;4.348;2022-12-05T07:00:07;2.60;99.90
23069;DHT22;11702;50.856;4.348;2022-12-05T07:02:52;2.50;99.90
23069;DHT22;11702;50.856;4.348;2022-12-05T07:05:17;2.60;99.90
23069;DHT22;11702;50.856;4.348;2022-12-05T07:07:43;2.70;99.90
23069;DHT22;11702;50.856;4.348;2022-12-05T07:10:09;2.70;99.90
23069;DHT22;11702;50.856;4.348;2022-12-05T07:12:34;2.80;99.90
23069;DHT22;11702;50.856;4.348;2022-12-05T07:15:00;2.70;99.90
23069;DHT22;11702;50.856;4.348;2022-12-05T07:17:26;2.60;99.90
23069;DHT22;11702;50.856;4.348;2022-12-05T07:19:52;2.60;99.90
23069;DHT22;11702;50.856;4.348;2022-12-05T07:22:20;2.70;99.90
23069;DHT22;11702;50.856;4.348;2022-12-05T07:24:46;2.60;99.90
23069;DHT22;11702;50.856;4.348;2022-12-05T07:27:13;2.60;99.90
23069;DHT22;11702;50.856;4.348;2022-12-05T07:29:39;2.50;99.90
23069;DHT22;11702;50.856;4.348;2022-12-05T07:32:05;2.60;99.90
23069;DHT22;11702;50.856;4.348;2022-12-05T07:34:32;2.60;99.90
23069;DHT22;11702;50.856;4.348;2022-12-05T07:36:59;2.70;99.90
23069;DHT22;11702;50.856;4.348;2022-12-05T07:39:25;2.80;99.90
23069;DHT22;11702;50.856;4.348;2022-12-05T07:41:50;2.90;99.90
23069;DHT22;11702;50.856;4.348;2022-12-05T07:44:16;2.90;99.90
23069;DHT22;11702;50.856;4.348;2022-12-05T07:46:42;2.80;99.90
23069;DHT22;11702;50.856;4.348;2022-12-05T07:49:07;2.80;99.90
23069;DHT22;11702;50.856;4.348;2022-12-05T07:51:33;2.70;99.90
23069;DHT22;11702;50.856;4.348;2022-12-05T07:54:00;2.80;99.90
23069;DHT22;11702;50.856;4.348;2022-12-05T07:56:26;2.80;99.90
23069;DHT22;11702;50.856;4.348;2022-12-05T07:58:52;2.80;99.90
23069;DHT22;11702;50.856;4.348;2022-12-05T08:01:20;2.70;99.90
23069;DHT22;11702;50.856;4.348;2022-12-05T08:03:46;2.70;99.90
23069;DHT22;11702;50.856;4.348;2022-12-05T08:06:15;2.70;99.90
23069;DHT22;11702;50.856;4.348;2022-12-05T08:08:41;2.60;99.90
23069;DHT22;11702;50.856;4.348;2022-12-05T08:11:12;2.60;99.90
23069;DHT22;11702;50.856;4.348;2022-12-05T08:13:38;2.60;99.90
23069;DHT22;11702;50.856;4.348;2022-12-05T08:16:08;2.70;99.90
23069;DHT22;11702;50.856;4.348;2022-12-05T08:18:34;2.80;99.90
23069;DHT22;11702;50.856;4.348;2022-12-05T08:21:11;2.80;99.90
23069;DHT22;11702;50.856;4.348;2022-12-05T08:23:38;2.70;99.90
23069;DHT22;11702;50.856;4.348;2022-12-05T08:28:34;2.80;99.90
23069;DHT22;11702;50.856;4.348;2022-12-05T08:31:09;2.80;99.90
23069;DHT22;11702;50.856;4.348;2022-12-05T08:33:36;2.80;99.90
23069;DHT22;11702;50.856;4.348;2022-12-05T08:36:07;2.80;99.90
23069;DHT22;11702;50.856;4.348;2022-12-05T08:38:34;2.80;99.90
23069;DHT22;11702;50.856;4.348;2022-12-05T08:41:00;2.90;99.90
23069;DHT22;11702;50.856;4.348;2022-12-05T08:43:27;2.90;99.90
23069;DHT22;11702;50.856;4.348;2022-12-05T08:45:53;3.20;99.90
23069;DHT22;11702;50.856;4.348;2022-12-05T08:48:19;3.30;99.90
23069;DHT22;11702;50.856;4.348;2022-12-05T08:50:45;3.40;99.90
23069;DHT22;11702;50.856;4.348;2022-12-05T08:53:10;3.40;99.90
23069;DHT22;11702;50.856;4.348;2022-12-05T08:55:37;3.40;99.90
23069;DHT22;11702;50.856;4.348;2022-12-05T08:58:03;3.40;99.90
23069;DHT22;11702;50.856;4.348;2022-12-05T09:00:28;3.30;99.90
23069;DHT22;11702;50.856;4.348;2022-12-05T09:02:54;3.30;99.90
23069;DHT22;11702;50.856;4.348;2022-12-05T09:05:21;3.20;99.90
23069;DHT22;11702;50.856;4.348;2022-12-05T09:07:47;3.20;99.90
23069;DHT22;11702;50.856;4.348;2022-12-05T09:10:13;3.30;99.90
23069;DHT22;11702;50.856;4.348;2022-12-05T09:12:38;3.50;99.90
23069;DHT22;11702;50.856;4.348;2022-12-05T09:15:09;3.50;99.90
23069;DHT22;11702;50.856;4.348;2022-12-05T09:17:35;3.60;99.90
23069;DHT22;11702;50.856;4.348;2022-12-05T09:20:01;3.70;99.90
23069;DHT22;11702;50.856;4.348;2022-12-05T09:22:27;3.70;99.90
23069;DHT22;11702;50.856;4.348;2022-12-05T09:24:52;3.70;99.90
23069;DHT22;11702;50.856;4.348;2022-12-05T09:27:18;3.80;99.90
23069;DHT22;11702;50.856;4.348;2022-12-05T09:29:43;3.70;99.90
23069;DHT22;11702;50.856;4.348;2022-12-05T09:32:10;3.80;99.90
23069;DHT22;11702;50.856;4.348;2022-12-05T09:34:36;3.90;99.90
23069;DHT22;11702;50.856;4.348;2022-12-05T09:37:06;3.80;99.90
23069;DHT22;11702;50.856;4.348;2022-12-05T09:39:32;3.80;99.90
23069;DHT22;11702;50.856;4.348;2022-12-05T09:42:02;3.80;99.90
23069;DHT22;11702;50.856;4.348;2022-12-05T09:45:00;4.00;99.90
23069;DHT22;11702;50.856;4.348;2022-12-05T09:58:38;4.10;99.90
23069;DHT22;11702;50.856;4.348;2022-12-05T10:06:44;3.80;99.90
23069;DHT22;11702;50.856;4.348;2022-12-05T10:09:33;3.80;99.90
23069;DHT22;11702;50.856;4.348;2022-12-05T10:14:41;3.60;99.90
23069;DHT22;11702;50.856;4.348;2022-12-05T10:17:22;3.50;99.90
23069;DHT22;11702;50.856;4.348;2022-12-05T10:19:52;3.70;99.90
23069;DHT22;11702;50.856;4.348;2022-12-05T10:22:37;3.90;99.90
23069;DHT22;11702;50.856;4.348;2022-12-05T10:25:05;3.80;99.90
23069;DHT22;11702;50.856;4.348;2022-12-05T10:27:46;3.80;99.90
23069;DHT22;11702;50.856;4.348;2022-12-05T10:30:24;3.80;99.90
23069;DHT22;11702;50.856;4.348;2022-12-05T10:32:59;3.80;99.90
23069;DHT22;11702;50.856;4.348;2022-12-05T10:35:34;3.80;99.90
23069;DHT22;11702;50.856;4.348;2022-12-05T10:38:14;3.80;99.90
23069;DHT22;11702;50.856;4.348;2022-12-05T10:40:45;3.80;99.90
23069;DHT22;11702;50.856;4.348;2022-12-05T10:43:18;3.90;99.90
23069;DHT22;11702;50.856;4.348;2022-12-05T10:45:46;3.90;99.90
23069;DHT22;11702;50.856;4.348;2022-12-05T10:48:15;4.00;99.90
23069;DHT22;11702;50.856;4.348;2022-12-05T10:50:42;3.90;99.90
23069;DHT22;11702;50.856;4.348;2022-12-05T10:53:17;3.90;99.90
23069;DHT22;11702;50.856;4.348;2022-12-05T10:55:46;3.80;99.90
23069;DHT22;11702;50.856;4.348;2022-12-05T10:58:17;3.70;99.90
23069;DHT22;11702;50.856;4.348;2022-12-05T11:00:50;3.80;99.90
23069;DHT22;11702;50.856;4.348;2022-12-05T11:03:34;3.80;99.90
23069;DHT22;11702;50.856;4.348;2022-12-05T11:08:40;3.70;99.90
23069;DHT22;11702;50.856;4.348;2022-12-05T11:14:17;3.60;99.90
23069;DHT22;11702;50.856;4.348;2022-12-05T11:16:51;3.70;99.90
23069;DHT22;11702;50.856;4.348;2022-12-05T11:21:46;3.70;99.90
23069;DHT22;11702;50.856;4.348;2022-12-05T11:24:31;3.80;99.90
23069;DHT22;11702;50.856;4.348;2022-12-05T11:26:59;3.80;99.90
23069;DHT22;11702;50.856;4.348;2022-12-05T11:31:57;3.70;99.90
23069;DHT22;11702;50.856;4.348;2022-12-05T11:34:45;3.80;99.90
23069;DHT22;11702;50.856;4.348;2022-12-05T11:37:16;3.80;99.90
23069;DHT22;11702;50.856;4.348;2022-12-05T11:39:42;3.80;99.90
23069;DHT22;11702;50.856;4.348;2022-12-05T11:45:11;3.80;99.90
23069;DHT22;11702;50.856;4.348;2022-12-05T11:50:40;3.90;99.90
23069;DHT22;11702;50.856;4.348;2022-12-05T11:59:12;3.80;99.90
23069;DHT22;11702;50.856;4.348;2022-12-05T12:01:56;4.00;99.90
23069;DHT22;11702;50.856;4.348;2022-12-05T12:04:30;3.80;99.90
23069;DHT22;11702;50.856;4.348;2022-12-05T12:10:12;4.00;99.90
23069;DHT22;11702;50.856;4.348;2022-12-05T12:21:11;4.50;99.90
23069;DHT22;11702;50.856;4.348;2022-12-05T12:40:02;4.40;99.90
23069;DHT22;11702;50.856;4.348;2022-12-05T12:42:48;4.40;99.90
23069;DHT22;11702;50.856;4.348;2022-12-05T12:48:39;4.30;99.90
23069;DHT22;11702;50.856;4.348;2022-12-05T12:51:11;4.40;99.90
23069;DHT22;11702;50.856;4.348;2022-12-05T12:58:56;4.70;99.90
23069;DHT22;11702;50.856;4.348;2022-12-05T13:01:42;4.60;99.90
23069;DHT22;11702;50.856;4.348;2022-12-05T13:04:20;4.60;99.90
23069;DHT22;11702;50.856;4.348;2022-12-05T13:06:56;4.30;99.90
23069;DHT22;11702;50.856;4.348;2022-12-05T13:09:29;4.30;99.90
23069;DHT22;11702;50.856;4.348;2022-12-05T13:12:00;4.50;99.90
23069;DHT22;11702;50.856;4.348;2022-12-05T13:14:28;4.60;99.90
23069;DHT22;11702;50.856;4.348;2022-12-05T13:16:54;4.60;99.90
23069;DHT22;11702;50.856;4.348;2022-12-05T13:19:48;4.70;99.90
23069;DHT22;11702;50.856;4.348;2022-12-05T13:22:16;4.60;99.90
23069;DHT22;11702;50.856;4.348;2022-12-05T13:24:42;4.60;99.90
23069;DHT22;11702;50.856;4.348;2022-12-05T13:27:15;4.50;99.90
23069;DHT22;11702;50.856;4.348;2022-12-05T13:29:51;4.40;99.90
23069;DHT22;11702;50.856;4.348;2022-12-05T13:32:31;4.40;99.90
23069;DHT22;11702;50.856;4.348;2022-12-05T13:35:10;4.30;99.90
23069;DHT22;11702;50.856;4.348;2022-12-05T13:37:44;4.30;99.90
23069;DHT22;11702;50.856;4.348;2022-12-05T13:40:31;4.20;99.90
23069;DHT22;11702;50.856;4.348;2022-12-05T13:43:22;4.30;99.90
23069;DHT22;11702;50.856;4.348;2022-12-05T13:46:09;4.30;99.90
23069;DHT22;11702;50.856;4.348;2022-12-05T13:48:39;4.40;99.90
23069;DHT22;11702;50.856;4.348;2022-12-05T13:51:08;4.30;99.90
23069;DHT22;11702;50.856;4.348;2022-12-05T13:53:40;4.30;99.90
23069;DHT22;11702;50.856;4.348;2022-12-05T14:03:57;4.60;99.90
23069;DHT22;11702;50.856;4.348;2022-12-05T14:09:27;4.60;99.90
23069;DHT22;11702;50.856;4.348;2022-12-05T14:14:58;4.40;99.90
23069;DHT22;11702;50.856;4.348;2022-12-05T14:17:43;4.30;99.90
23069;DHT22;11702;50.856;4.348;2022-12-05T14:28:13;4.10;99.90
23069;DHT22;11702;50.856;4.348;2022-12-05T14:31:20;4.00;99.90
23069;DHT22;11702;50.856;4.348;2022-12-05T14:34:21;4.10;99.90
23069;DHT22;11702;50.856;4.348;2022-12-05T14:36:54;3.90;99.90
23069;DHT22;11702;50.856;4.348;2022-12-05T14:39:21;3.90;99.90
23069;DHT22;11702;50.856;4.348;2022-12-05T14:41:58;4.10;99.90
23069;DHT22;11702;50.856;4.348;2022-12-05T14:44:25;4.20;99.90
23069;DHT22;11702;50.856;4.348;2022-12-05T14:46:58;4.30;99.90
23069;DHT22;11702;50.856;4.348;2022-12-05T14:49:53;4.50;99.90
23069;DHT22;11702;50.856;4.348;2022-12-05T14:52:22;4.40;99.90
23069;DHT22;11702;50.856;4.348;2022-12-05T14:55:00;4.30;99.90
23069;DHT22;11702;50.856;4.348;2022-12-05T14:57:28;4.30;99.90
23069;DHT22;11702;50.856;4.348;2022-12-05T15:00:01;4.40;99.90
23069;DHT22;11702;50.856;4.348;2022-12-05T15:02:33;4.40;99.90
23069;DHT22;11702;50.856;4.348;2022-12-05T15:05:33;4.50;99.90
23069;DHT22;11702;50.856;4.348;2022-12-05T15:08:00;4.50;99.90
23069;DHT22;11702;50.856;4.348;2022-12-05T15:10:32;4.60;99.90
23069;DHT22;11702;50.856;4.348;2022-12-05T15:13:15;4.70;99.90
23069;DHT22;11702;50.856;4.348;2022-12-05T15:21:21;4.40;99.90
23069;DHT22;11702;50.856;4.348;2022-12-05T15:23:58;4.50;99.90
23069;DHT22;11702;50.856;4.348;2022-12-05T15:31:52;4.80;99.90
23069;DHT22;11702;50.856;4.348;2022-12-05T15:34:28;4.90;99.90
23069;DHT22;11702;50.856;4.348;2022-12-05T15:37:18;5.00;99.90
23069;DHT22;11702;50.856;4.348;2022-12-05T15:39:50;4.90;99.90
23069;DHT22;11702;50.856;4.348;2022-12-05T15:42:17;5.00;99.90
23069;DHT22;11702;50.856;4.348;2022-12-05T15:44:42;4.90;99.90
23069;DHT22;11702;50.856;4.348;2022-12-05T15:47:23;4.90;99.90
23069;DHT22;11702;50.856;4.348;2022-12-05T15:49:50;4.90;99.90
23069;DHT22;11702;50.856;4.348;2022-12-05T15:52:38;4.90;99.90
23069;DHT22;11702;50.856;4.348;2022-12-05T15:55:11;4.90;99.90
23069;DHT22;11702;50.856;4.348;2022-12-05T15:57:48;4.90;99.90
23069;DHT22;11702;50.856;4.348;2022-12-05T16:00:16;4.90;99.90
23069;DHT22;11702;50.856;4.348;2022-12-05T16:02:51;5.00;99.90
23069;DHT22;11702;50.856;4.348;2022-12-05T16:05:25;5.10;99.90
23069;DHT22;11702;50.856;4.348;2022-12-05T16:07:53;5.10;99.90
23069;DHT22;11702;50.856;4.348;2022-12-05T16:10:19;5.00;99.90
23069;DHT22;11702;50.856;4.348;2022-12-05T16:12:46;4.80;99.90
23069;DHT22;11702;50.856;4.348;2022-12-05T16:15:20;4.80;99.90
23069;DHT22;11702;50.856;4.348;2022-12-05T16:17:52;4.80;99.90
23069;DHT22;11702;50.856;4.348;2022-12-05T16:20:20;5.00;99.90
23069;DHT22;11702;50.856;4.348;2022-12-05T16:22:48;5.00;99.90
23069;DHT22;11702;50.856;4.348;2022-12-05T16:25:17;5.20;99.90
23069;DHT22;11702;50.856;4.348;2022-12-05T16:28:36;5.30;99.90
23069;DHT22;11702;50.856;4.348;2022-12-05T16:31:15;5.40;99.90
23069;DHT22;11702;50.856;4.348;2022-12-05T16:33:42;5.30;99.90
23069;DHT22;11702;50.856;4.348;2022-12-05T16:36:09;5.30;99.90
23069;DHT22;11702;50.856;4.348;2022-12-05T16:38:36;5.30;99.90
23069;DHT22;11702;50.856;4.348;2022-12-05T16:41:06;5.30;99.90
23069;DHT22;11702;50.856;4.348;2022-12-05T16:48:46;5.10;99.90
23069;DHT22;11702;50.856;4.348;2022-12-05T16:51:39;5.00;99.90
23069;DHT22;11702;50.856;4.348;2022-12-05T16:54:06;5.00;99.90
23069;DHT22;11702;50.856;4.348;2022-12-05T16:56:32;5.00;99.90
23069;DHT22;11702;50.856;4.348;2022-12-05T16:59:03;5.10;99.90
23069;DHT22;11702;50.856;4.348;2022-12-05T17:01:29;5.30;99.90
23069;DHT22;11702;50.856;4.348;2022-12-05T17:03:55;5.30;99.90
23069;DHT22;11702;50.856;4.348;2022-12-05T17:06:22;5.10;99.90
23069;DHT22;11702;50.856;4.348;2022-12-05T17:08:51;5.10;99.90
23069;DHT22;11702;50.856;4.348;2022-12-05T17:11:23;5.10;99.90
23069;DHT22;11702;50.856;4.348;2022-12-05T17:13:50;5.10;99.90
23069;DHT22;11702;50.856;4.348;2022-12-05T17:16:17;5.20;99.90
23069;DHT22;11702;50.856;4.348;2022-12-05T17:18:44;5.20;99.90
23069;DHT22;11702;50.856;4.348;2022-12-05T17:21:25;5.30;99.90
23069;DHT22;11702;50.856;4.348;2022-12-05T17:23:53;5.50;99.90
23069;DHT22;11702;50.856;4.348;2022-12-05T17:26:20;5.50;99.90
23069;DHT22;11702;50.856;4.348;2022-12-05T17:28:47;5.50;99.90
23069;DHT22;11702;50.856;4.348;2022-12-05T17:31:15;5.30;99.90
23069;DHT22;11702;50.856;4.348;2022-12-05T17:33:44;5.30;99.90
23069;DHT22;11702;50.856;4.348;2022-12-05T17:36:10;5.20;99.90
23069;DHT22;11702;50.856;4.348;2022-12-05T17:38:36;5.20;99.90
23069;DHT22;11702;50.856;4.348;2022-12-05T17:41:02;5.30;99.90
23069;DHT22;11702;50.856;4.348;2022-12-05T17:43:27;5.40;99.90
23069;DHT22;11702;50.856;4.348;2022-12-05T17:45:53;5.40;99.90
23069;DHT22;11702;50.856;4.348;2022-12-05T17:48:21;5.40;99.90
23069;DHT22;11702;50.856;4.348;2022-12-05T17:50:47;5.50;99.90
23069;DHT22;11702;50.856;4.348;2022-12-05T17:53:16;5.50;99.90
23069;DHT22;11702;50.856;4.348;2022-12-05T17:55:42;5.70;99.90
23069;DHT22;11702;50.856;4.348;2022-12-05T17:58:08;5.70;99.90
23069;DHT22;11702;50.856;4.348;2022-12-05T18:00:35;5.80;99.90
23069;DHT22;11702;50.856;4.348;2022-12-05T18:03:00;5.90;99.90
23069;DHT22;11702;50.856;4.348;2022-12-05T18:05:26;5.90;99.90
23069;DHT22;11702;50.856;4.348;2022-12-05T18:07:52;5.90;99.90
23069;DHT22;11702;50.856;4.348;2022-12-05T18:10:20;5.90;99.90
23069;DHT22;11702;50.856;4.348;2022-12-05T18:12:47;5.90;99.90
23069;DHT22;11702;50.856;4.348;2022-12-05T18:15:13;6.00;99.90
23069;DHT22;11702;50.856;4.348;2022-12-05T18:17:40;6.00;99.90
23069;DHT22;11702;50.856;4.348;2022-12-05T18:20:07;6.00;99.90
23069;DHT22;11702;50.856;4.348;2022-12-05T18:22:34;6.00;99.90
23069;DHT22;11702;50.856;4.348;2022-12-05T18:24:59;6.00;99.90
23069;DHT22;11702;50.856;4.348;2022-12-05T18:27:28;6.00;99.90
23069;DHT22;11702;50.856;4.348;2022-12-05T18:29:53;6.10;99.90
23069;DHT22;11702;50.856;4.348;2022-12-05T18:32:19;6.00;99.90
23069;DHT22;11702;50.856;4.348;2022-12-05T18:34:45;6.00;99.90
23069;DHT22;11702;50.856;4.348;2022-12-05T18:37:11;6.10;99.90
23069;DHT22;11702;50.856;4.348;2022-12-05T18:39:37;6.10;99.90
23069;DHT22;11702;50.856;4.348;2022-12-05T18:42:04;6.10;99.90
23069;DHT22;11702;50.856;4.348;2022-12-05T18:44:30;6.10;99.90
23069;DHT22;11702;50.856;4.348;2022-12-05T18:46:56;6.10;99.90
23069;DHT22;11702;50.856;4.348;2022-12-05T18:49:22;6.10;99.90
23069;DHT22;11702;50.856;4.348;2022-12-05T18:51:48;6.10;99.90